Mars Hill, North Carolina
Current Conditions -  °F | °C
As of 4:54 PM on Saturday 25 Oct 2014 (Local Time) from KAVL Reporting Station
Clear Clear  
Wind Chill: 70°   Ceiling: Unl
Heat Index: 70°   Visibility: 10mi
Dew Point: 33°   Wind: 8mph
Humidity: 26%   Direction: 350°N
Pressure: 30.01"   Gusts: NA
Location:  35.83°N, 82.55°W
Report Text: KAVL 252054Z 35007KT 10SM CLR 21/01 A3001 RMK AO2 SLP149 T02110006 55009
Loading
Personal Weather Stations






























Interactive Weather Map
Tropical Storm Tracking
New forecast layout! Learn more

10-Day Weather Forecast

Advertisements
Track Severe Weather on mobile